createdAt,value
2019-01-13T00:02:11.406Z,100264.64
2019-01-13T00:04:41.787Z,100274.98
2019-01-13T00:07:12.459Z,100274.23
2019-01-13T00:09:42.885Z,100273.13
2019-01-13T00:12:13.397Z,100270.59
2019-01-13T00:14:44.236Z,100272.59
2019-01-13T00:17:14.573Z,100262.33
2019-01-13T00:19:44.984Z,100272.30
2019-01-13T00:22:15.379Z,100276.47
2019-01-13T00:24:45.759Z,100278.13
2019-01-13T00:27:16.139Z,100282.74
2019-01-13T00:29:46.519Z,100285.63
2019-01-13T00:32:16.917Z,100281.72
2019-01-13T00:34:47.294Z,100291.17
2019-01-13T00:37:17.684Z,100285.63
2019-01-13T00:39:48.071Z,100284.39
2019-01-13T00:42:18.459Z,100286.54
2019-01-13T00:44:48.836Z,100283.55
2019-01-13T00:47:19.228Z,100279.20
2019-01-13T00:49:49.601Z,100289.34
2019-01-13T00:52:19.983Z,100290.45
2019-01-13T00:54:50.689Z,100285.41
2019-01-13T00:57:21.079Z,100288.61
2019-01-13T00:59:51.471Z,100285.30
2019-01-13T01:02:21.845Z,100282.63
2019-01-13T01:04:52.497Z,100283.94
2019-01-13T01:07:23.231Z,100283.61
2019-01-13T01:09:53.615Z,100287.41
2019-01-13T01:12:24.076Z,100285.51
2019-01-13T01:14:54.555Z,100302.45
2019-01-13T01:17:25.250Z,100296.43
2019-01-13T01:19:55.661Z,100306.94
2019-01-13T01:22:26.042Z,100286.49
2019-01-13T01:24:56.737Z,100266.30
2019-01-13T01:27:27.146Z,100279.70
2019-01-13T01:29:57.519Z,100279.91
2019-01-13T01:32:27.908Z,100274.92
2019-01-13T01:34:58.286Z,100269.80
2019-01-13T01:37:28.688Z,100266.09
2019-01-13T01:39:59.069Z,100272.35
2019-01-13T01:42:29.730Z,100276.47
2019-01-13T01:45:00.209Z,100269.81
2019-01-13T01:47:30.895Z,100278.87
2019-01-13T01:50:01.360Z,100274.47
2019-01-13T01:52:31.742Z,100272.35
2019-01-13T01:55:02.129Z,100278.73
2019-01-13T01:57:32.519Z,100271.02
2019-01-13T02:00:03.378Z,100278.35
2019-01-13T02:02:33.754Z,100278.31
2019-01-13T02:05:05.431Z,100278.66
2019-01-13T02:07:36.082Z,100265.91
2019-01-13T02:10:16.327Z,100272.75
2019-01-13T02:12:46.703Z,100270.48
2019-01-13T02:15:25.591Z,100284.42
2019-01-13T02:17:55.962Z,100271.02
2019-01-13T02:20:26.353Z,100265.44
2019-01-13T02:22:56.748Z,100270.91
2019-01-13T02:25:27.425Z,100262.55
2019-01-13T02:27:57.803Z,100263.32
2019-01-13T02:30:28.195Z,100280.91
2019-01-13T02:32:58.989Z,100272.53
2019-01-13T02:35:29.721Z,100275.47
2019-01-13T02:38:00.125Z,100271.73
2019-01-13T02:40:30.500Z,100259.41
2019-01-13T02:43:00.899Z,100259.02
2019-01-13T02:45:31.279Z,100262.00
2019-01-13T02:48:01.671Z,100251.89
2019-01-13T02:50:32.156Z,100247.72
2019-01-13T02:53:02.534Z,100255.03
2019-01-13T02:55:33.227Z,100250.80
2019-01-13T02:58:03.570Z,100252.11
2019-01-13T03:00:33.986Z,100250.74
2019-01-13T03:03:04.703Z,100254.27
2019-01-13T03:05:35.086Z,100243.05
2019-01-13T03:08:05.467Z,100237.54
2019-01-13T03:10:35.863Z,100249.80
2019-01-13T03:13:06.539Z,100252.02
2019-01-13T03:15:36.934Z,100244.84
2019-01-13T03:18:07.312Z,100238.59
2019-01-13T03:20:37.798Z,100233.97
2019-01-13T03:23:08.130Z,100223.64
2019-01-13T03:25:38.502Z,100227.03
2019-01-13T03:28:08.889Z,100220.52
2019-01-13T03:30:39.267Z,100217.56
2019-01-13T03:33:11.410Z,100219.35
2019-01-13T03:35:41.772Z,100225.41
2019-01-13T03:38:12.210Z,100223.36
2019-01-13T03:40:42.589Z,100221.23
2019-01-13T03:43:12.966Z,100217.59
2019-01-13T03:45:43.611Z,100220.27
2019-01-13T03:48:14.005Z,100208.02
2019-01-13T03:50:44.693Z,100216.91
2019-01-13T03:53:15.076Z,100209.70
2019-01-13T03:55:45.562Z,100207.20
2019-01-13T03:58:16.088Z,100200.45
2019-01-13T04:00:46.447Z,100204.40
2019-01-13T04:03:16.839Z,100203.92
2019-01-13T04:05:47.215Z,100203.75
2019-01-13T04:08:17.606Z,100203.39
2019-01-13T04:10:47.992Z,100194.27
2019-01-13T04:13:18.753Z,100198.00
2019-01-13T04:15:49.702Z,100185.67
2019-01-13T04:18:20.099Z,100191.11
2019-01-13T04:20:50.447Z,100177.23
2019-01-13T04:23:20.833Z,100173.38
2019-01-13T04:25:51.223Z,100174.19
2019-01-13T04:28:21.620Z,100162.58
2019-01-13T04:30:52.021Z,100161.77
2019-01-13T04:33:22.378Z,100158.45
2019-01-13T04:35:53.109Z,100156.23
2019-01-13T04:38:23.494Z,100155.31
2019-01-13T04:40:53.883Z,100155.86
2019-01-13T04:43:24.271Z,100154.29
2019-01-13T04:45:54.646Z,100145.28
2019-01-13T04:48:25.021Z,100145.45
2019-01-13T04:50:55.408Z,100147.02
2019-01-13T04:53:25.799Z,100143.07
2019-01-13T04:55:56.177Z,100140.05
2019-01-13T04:58:26.851Z,100130.23
2019-01-13T05:00:57.223Z,100121.94
2019-01-13T05:03:27.919Z,100129.92
2019-01-13T05:05:58.295Z,100123.13
2019-01-13T05:08:28.677Z,100127.41
2019-01-13T05:10:59.054Z,100123.34
2019-01-13T05:13:29.727Z,100116.43
2019-01-13T05:16:00.106Z,100107.64
2019-01-13T05:18:30.531Z,100112.63
2019-01-13T05:21:00.966Z,100119.03
2019-01-13T05:23:31.749Z,100130.11
2019-01-13T05:26:02.209Z,100120.05
2019-01-13T05:28:33.009Z,100116.74
2019-01-13T05:31:03.847Z,100126.49
2019-01-13T05:33:34.218Z,100109.79
2019-01-13T05:36:05.076Z,100102.52
2019-01-13T05:38:35.449Z,100104.64
2019-01-13T05:41:05.830Z,100110.83
2019-01-13T05:43:36.212Z,100095.59
2019-01-13T05:46:06.672Z,100095.80
2019-01-13T05:48:37.052Z,100089.66
2019-01-13T05:51:07.495Z,100092.55
2019-01-13T05:53:37.885Z,100081.03
2019-01-13T05:56:08.286Z,100075.17
2019-01-13T05:58:38.663Z,100065.68
2019-01-13T06:01:09.058Z,100065.96
2019-01-13T06:03:39.522Z,100055.66
2019-01-13T06:06:09.898Z,100035.97
2019-01-13T06:08:40.301Z,100034.11
2019-01-13T06:11:10.677Z,100026.41
2019-01-13T06:13:41.073Z,100018.83
2019-01-13T06:16:11.444Z,100016.31
2019-01-13T06:18:41.835Z,100007.60
2019-01-13T06:21:12.234Z,100008.21
2019-01-13T06:23:42.609Z,100005.16
2019-01-13T06:26:12.988Z,99993.83
2019-01-13T06:28:43.415Z,99999.69
2019-01-13T06:31:13.784Z,99996.43
2019-01-13T06:33:44.169Z,99995.94
2019-01-13T06:36:14.542Z,99987.79
2019-01-13T06:38:45.267Z,99987.02
2019-01-13T06:41:15.642Z,99991.66
2019-01-13T06:43:46.020Z,99986.55
2019-01-13T06:46:18.984Z,99982.28
2019-01-13T06:48:49.371Z,99980.09
2019-01-13T06:51:19.743Z,99976.22
2019-01-13T06:53:50.124Z,99978.55
2019-01-13T06:56:20.491Z,99987.58
2019-01-13T06:58:50.886Z,99986.33
2019-01-13T07:01:21.255Z,99985.55
2019-01-13T07:03:51.900Z,99978.69
2019-01-13T07:06:22.292Z,99969.78
2019-01-13T07:08:52.664Z,99981.02
2019-01-13T07:11:23.056Z,99979.80
2019-01-13T07:13:53.419Z,99973.59
2019-01-13T07:16:23.875Z,99979.95
2019-01-13T07:18:54.249Z,99977.84
2019-01-13T07:21:24.998Z,99967.58
2019-01-13T07:23:55.382Z,99966.11
2019-01-13T07:26:25.757Z,99960.85
2019-01-13T07:28:56.708Z,99957.52
2019-01-13T07:31:27.075Z,99931.95
2019-01-13T07:33:58.011Z,99918.00
2019-01-13T07:36:28.375Z,99933.63
2019-01-13T07:38:58.819Z,99926.14
2019-01-13T07:41:29.178Z,99915.00
2019-01-13T07:43:59.558Z,99918.67
2019-01-13T07:46:29.946Z,99913.07
2019-01-13T07:49:00.346Z,99905.34
2019-01-13T07:51:30.723Z,99899.69
2019-01-13T07:54:01.087Z,99898.76
2019-01-13T07:56:31.463Z,99897.11
2019-01-13T07:59:01.890Z,99888.91
2019-01-13T08:01:32.262Z,99875.32
2019-01-13T08:04:02.623Z,99876.69
2019-01-13T08:06:33.017Z,99881.30
2019-01-13T08:09:04.307Z,99875.62
2019-01-13T08:11:34.705Z,99867.89
2019-01-13T08:14:05.065Z,99854.58
2019-01-13T08:16:35.455Z,99853.69
2019-01-13T08:19:06.087Z,99846.20
2019-01-13T08:21:36.844Z,99842.72
2019-01-13T08:24:08.052Z,99835.00
2019-01-13T08:26:38.474Z,99826.84
2019-01-13T08:29:08.842Z,99825.59
2019-01-13T08:31:39.286Z,99827.69
2019-01-13T08:34:09.675Z,99809.11
2019-01-13T08:36:40.047Z,99799.52
2019-01-13T08:39:10.431Z,99792.94
2019-01-13T08:41:40.799Z,99784.77
2019-01-13T08:44:11.191Z,99786.18
2019-01-13T08:46:41.820Z,99770.70
2019-01-13T08:49:12.535Z,99763.98
2019-01-13T08:51:42.903Z,99755.67
2019-01-13T08:54:13.286Z,99750.88
2019-01-13T08:56:43.649Z,99743.59
2019-01-13T08:59:14.041Z,99732.28
2019-01-13T09:01:44.483Z,99717.50
2019-01-13T09:04:14.903Z,99708.47
2019-01-13T09:06:46.200Z,99705.97
2019-01-13T09:09:16.571Z,99697.52
2019-01-13T09:11:46.961Z,99688.38
2019-01-13T09:14:17.332Z,99684.20
2019-01-13T09:16:48.061Z,99684.95
2019-01-13T09:19:18.447Z,99671.59
2019-01-13T09:21:48.892Z,99664.88
2019-01-13T09:24:19.276Z,99652.70
2019-01-13T09:26:51.118Z,99649.04
2019-01-13T09:29:21.614Z,99638.28
2019-01-13T09:31:52.292Z,99635.30
2019-01-13T09:34:22.705Z,99628.83
2019-01-13T09:36:53.094Z,99621.52
2019-01-13T09:39:23.462Z,99618.41
2019-01-13T09:41:54.170Z,99613.05
2019-01-13T09:44:24.606Z,99604.33
2019-01-13T09:46:55.341Z,99591.95
2019-01-13T09:49:25.704Z,99582.87
2019-01-13T09:51:56.119Z,99571.10
2019-01-13T09:54:26.678Z,99561.66
2019-01-13T09:56:57.055Z,99556.58
2019-01-13T09:59:27.435Z,99555.84
2019-01-13T10:01:57.799Z,99547.62
2019-01-13T10:04:28.239Z,99538.95
2019-01-13T10:06:58.598Z,99528.00
2019-01-13T10:09:28.999Z,99524.02
2019-01-13T10:11:59.373Z,99512.33
2019-01-13T10:14:29.740Z,99512.91
2019-01-13T10:17:00.116Z,99501.41
2019-01-13T10:19:30.555Z,99487.20
2019-01-13T10:22:00.948Z,99483.05
2019-01-13T10:24:31.318Z,99472.77
2019-01-13T10:27:01.713Z,99463.94
2019-01-13T10:29:32.082Z,99458.27
2019-01-13T10:32:02.440Z,99446.50
2019-01-13T10:34:32.814Z,99441.33
2019-01-13T10:37:03.185Z,99433.75
2019-01-13T10:39:33.559Z,99430.17
2019-01-13T10:42:04.229Z,99426.91
2019-01-13T10:44:34.616Z,99415.98
2019-01-13T10:47:05.300Z,99417.62
2019-01-13T10:49:35.661Z,99403.56
2019-01-13T10:52:06.034Z,99406.37
2019-01-13T10:54:36.674Z,99399.73
2019-01-13T10:57:07.061Z,99389.59
2019-01-13T10:59:37.738Z,99385.92
2019-01-13T11:02:08.478Z,99384.91
2019-01-13T11:04:38.847Z,99379.20
2019-01-13T11:07:09.270Z,99385.23
2019-01-13T11:09:39.969Z,99360.13
2019-01-13T11:12:10.741Z,99365.22
2019-01-13T11:14:41.127Z,99362.20
2019-01-13T11:17:11.552Z,99352.79
2019-01-13T11:19:42.342Z,99346.03
2019-01-13T11:22:12.731Z,99341.02
2019-01-13T11:24:43.108Z,99334.61
2019-01-13T11:27:13.475Z,99340.84
2019-01-13T11:29:44.206Z,99318.55
2019-01-13T11:32:14.609Z,99316.42
2019-01-13T11:34:44.987Z,99316.34
2019-01-13T11:37:15.417Z,99302.31
2019-01-13T11:39:45.886Z,99309.64
2019-01-13T11:42:16.268Z,99296.06
2019-01-13T11:44:46.662Z,99286.93
2019-01-13T11:47:17.030Z,99277.14
2019-01-13T11:49:47.458Z,99272.16
2019-01-13T11:52:17.830Z,99255.77
2019-01-13T11:54:48.637Z,99255.11
2019-01-13T11:57:19.131Z,99253.92
2019-01-13T11:59:49.542Z,99246.66
2019-01-13T12:02:19.905Z,99238.42
2019-01-13T12:04:50.611Z,99229.92
2019-01-13T12:07:20.978Z,99220.30
2019-01-13T12:09:51.376Z,99218.50
2019-01-13T12:12:21.738Z,99214.20
2019-01-13T12:14:52.132Z,99214.11
2019-01-13T12:17:22.848Z,99205.58
2019-01-13T12:19:53.214Z,99208.92
2019-01-13T12:22:23.598Z,99199.09
2019-01-13T12:24:53.965Z,99183.13
2019-01-13T12:27:24.619Z,99175.53
2019-01-13T12:29:54.983Z,99162.64
2019-01-13T12:32:25.373Z,99166.91
2019-01-13T12:34:55.742Z,99172.06
2019-01-13T12:37:26.119Z,99175.16
2019-01-13T12:39:56.494Z,99165.14
2019-01-13T12:42:27.464Z,99164.64
2019-01-13T12:44:58.158Z,99158.06
2019-01-13T12:47:28.539Z,99146.17
2019-01-13T12:49:59.224Z,99143.51
2019-01-13T12:52:29.603Z,99132.43
2019-01-13T12:54:59.966Z,99128.05
2019-01-13T12:57:30.342Z,99117.34
2019-01-13T13:00:01.035Z,99113.73
2019-01-13T13:02:31.429Z,99109.20
2019-01-13T13:05:01.801Z,99110.09
2019-01-13T13:07:32.547Z,99101.20
2019-01-13T13:10:02.935Z,99111.80
2019-01-13T13:12:33.308Z,99095.77
2019-01-13T13:15:04.760Z,99094.20
2019-01-13T13:17:35.148Z,99081.38
2019-01-13T13:20:16.722Z,99068.02
2019-01-13T13:22:47.688Z,99071.02
2019-01-13T13:25:18.195Z,99070.22
2019-01-13T13:27:48.598Z,99061.58
2019-01-13T13:30:23.356Z,99075.15
2019-01-13T13:32:53.925Z,99064.30
2019-01-13T13:35:24.446Z,99082.59
2019-01-13T13:37:54.981Z,99057.52
2019-01-13T13:40:28.103Z,99049.59
2019-01-13T13:42:58.504Z,99053.28
2019-01-13T13:45:28.876Z,99036.30
2019-01-13T13:47:59.275Z,99033.77
2019-01-13T13:50:29.647Z,99026.81
2019-01-13T13:53:00.046Z,99029.19
2019-01-13T13:55:30.468Z,99020.88
2019-01-13T13:58:00.824Z,99014.53
2019-01-13T14:00:33.788Z,99014.55
2019-01-13T14:03:04.185Z,99008.11
2019-01-13T14:05:34.561Z,99005.03
2019-01-13T14:08:05.431Z,99010.23
2019-01-13T14:10:37.708Z,99001.28
2019-01-13T14:13:08.107Z,98994.05
2019-01-13T14:15:38.467Z,98976.88
2019-01-13T14:18:09.186Z,98974.09
2019-01-13T14:20:39.557Z,98961.38
2019-01-13T14:23:10.247Z,98958.91
2019-01-13T14:25:40.632Z,98945.44
2019-01-13T14:28:11.018Z,98946.63
2019-01-13T14:30:41.727Z,98938.77
2019-01-13T14:33:12.465Z,98923.05
2019-01-13T14:35:44.847Z,98923.35
2019-01-13T14:38:15.224Z,98926.11
2019-01-13T14:40:45.599Z,98913.20
2019-01-13T14:43:15.984Z,98911.30
2019-01-13T14:45:46.354Z,98891.68
2019-01-13T14:48:16.738Z,98896.18
2019-01-13T14:50:47.107Z,98886.68
2019-01-13T14:53:17.504Z,98883.91
2019-01-13T14:55:48.003Z,98874.11
2019-01-13T14:58:18.383Z,98861.53
2019-01-13T15:00:48.765Z,98858.34
2019-01-13T15:03:19.137Z,98854.27
2019-01-13T15:05:49.543Z,98840.81
2019-01-13T15:08:19.915Z,98830.10
2019-01-13T15:10:50.302Z,98833.80
2019-01-13T15:13:20.748Z,98830.01
2019-01-13T15:15:51.119Z,98843.26
2019-01-13T15:18:21.805Z,98861.01
2019-01-13T15:20:52.252Z,98878.48
2019-01-13T15:23:22.641Z,98897.33
2019-01-13T15:25:53.394Z,98896.20
2019-01-13T15:28:23.856Z,98885.80
2019-01-13T15:30:54.550Z,98857.36
2019-01-13T15:33:24.996Z,98847.94
2019-01-13T15:35:55.361Z,98847.76
2019-01-13T15:38:26.567Z,98854.40
2019-01-13T15:40:57.258Z,98869.20
2019-01-13T15:43:27.917Z,98854.30
2019-01-13T15:45:58.287Z,98844.23
2019-01-13T15:48:28.979Z,98838.51
2019-01-13T15:50:59.345Z,98825.72
2019-01-13T15:53:29.823Z,98816.05
2019-01-13T15:56:00.183Z,98826.92
2019-01-13T15:58:30.558Z,98820.02
2019-01-13T16:01:01.097Z,98792.40
2019-01-13T16:03:31.502Z,98787.84
2019-01-13T16:06:01.992Z,98784.81
2019-01-13T16:08:32.615Z,98792.00
2019-01-13T16:11:03.338Z,98770.33
2019-01-13T16:13:33.958Z,98786.86
2019-01-13T16:16:04.487Z,98791.06
2019-01-13T16:18:34.875Z,98790.09
2019-01-13T16:21:05.376Z,98786.38
2019-01-13T16:23:35.827Z,98771.41
2019-01-13T16:26:06.436Z,98778.23
2019-01-13T16:28:36.815Z,98771.11
2019-01-13T16:31:07.191Z,98769.70
2019-01-13T16:33:37.559Z,98768.27
2019-01-13T16:36:07.963Z,98771.25
2019-01-13T16:38:38.414Z,98748.39
2019-01-13T16:41:08.781Z,98755.19
2019-01-13T16:43:39.158Z,98750.14
2019-01-13T16:46:09.562Z,98745.76
2019-01-13T16:48:39.964Z,98740.42
2019-01-13T16:51:10.336Z,98735.80
2019-01-13T16:53:40.761Z,98750.58
2019-01-13T16:56:11.127Z,98740.04
2019-01-13T16:58:41.524Z,98742.87
2019-01-13T17:01:11.892Z,98721.16
2019-01-13T17:03:42.275Z,98731.08
2019-01-13T17:06:12.664Z,98730.83
2019-01-13T17:08:43.042Z,98743.48
2019-01-13T17:11:13.507Z,98728.56
2019-01-13T17:13:45.537Z,98730.78
2019-01-13T17:16:17.200Z,98739.98
2019-01-13T17:18:47.568Z,98725.82
2019-01-13T17:21:17.952Z,98728.91
2019-01-13T17:23:48.320Z,98718.17
2019-01-13T17:26:18.728Z,98724.19
2019-01-13T17:28:49.100Z,98744.83
2019-01-13T17:31:19.764Z,98732.57
2019-01-13T17:33:50.185Z,98729.73
2019-01-13T17:36:20.562Z,98744.08
2019-01-13T17:38:51.005Z,98734.23
2019-01-13T17:41:21.720Z,98737.52
2019-01-13T17:43:52.134Z,98740.58
2019-01-13T17:46:22.521Z,98732.23
2019-01-13T17:48:52.900Z,98734.08
2019-01-13T17:51:23.352Z,98739.23
2019-01-13T17:53:54.117Z,98744.51
2019-01-13T17:56:24.510Z,98742.27
2019-01-13T17:58:54.889Z,98746.11
2019-01-13T18:01:25.918Z,98733.63
2019-01-13T18:03:56.616Z,98726.47
2019-01-13T18:06:27.007Z,98725.33
2019-01-13T18:08:57.756Z,98728.56
2019-01-13T18:11:28.187Z,98745.70
2019-01-13T18:13:58.557Z,98735.05
2019-01-13T18:16:28.936Z,98723.19
2019-01-13T18:18:59.308Z,98736.46
2019-01-13T18:21:29.760Z,98725.77
2019-01-13T18:24:00.138Z,98730.05
2019-01-13T18:26:30.553Z,98719.23
2019-01-13T18:29:00.946Z,98745.50
2019-01-13T18:31:31.324Z,98746.47
2019-01-13T18:34:01.710Z,98738.45
2019-01-13T18:36:32.093Z,98720.48
2019-01-13T18:39:02.481Z,98729.36
2019-01-13T18:41:32.854Z,98711.86
2019-01-13T18:44:03.532Z,98724.09
2019-01-13T18:46:33.907Z,98724.42
2019-01-13T18:49:04.286Z,98718.32
2019-01-13T18:51:34.668Z,98738.33
2019-01-13T18:54:05.344Z,98712.35
2019-01-13T18:56:35.735Z,98735.95
2019-01-13T18:59:06.101Z,98720.58
2019-01-13T19:01:36.494Z,98711.00
2019-01-13T19:04:06.884Z,98712.14
2019-01-13T19:06:37.292Z,98721.55
2019-01-13T19:09:10.280Z,98735.52
2019-01-13T19:11:40.808Z,98740.91
2019-01-13T19:14:18.956Z,98733.80
2019-01-13T19:16:54.359Z,98740.78
2019-01-13T19:19:24.728Z,98749.39
2019-01-13T19:21:55.521Z,98747.69
2019-01-13T19:24:25.904Z,98737.34
2019-01-13T19:26:56.272Z,98746.75
2019-01-13T19:29:26.659Z,98737.59
2019-01-13T19:31:57.032Z,98744.08
2019-01-13T19:34:27.409Z,98729.11
2019-01-13T19:36:58.018Z,98749.62
2019-01-13T19:39:28.411Z,98759.59
2019-01-13T19:41:58.784Z,98749.70
2019-01-13T19:44:29.177Z,98758.54
2019-01-13T19:46:59.568Z,98755.75
2019-01-13T19:49:29.947Z,98754.94
2019-01-13T19:52:00.652Z,98751.75
2019-01-13T19:54:31.387Z,98763.95
2019-01-13T19:57:01.763Z,98774.52
2019-01-13T19:59:32.143Z,98758.07
2019-01-13T20:02:02.544Z,98764.84
2019-01-13T20:04:32.919Z,98757.69
2019-01-13T20:07:03.833Z,98747.00
2019-01-13T20:09:34.278Z,98748.23
2019-01-13T20:12:05.304Z,98742.29
2019-01-13T20:14:35.678Z,98755.56
2019-01-13T20:17:06.088Z,98743.28
2019-01-13T20:19:36.516Z,98769.72
2019-01-13T20:22:06.945Z,98764.02
2019-01-13T20:24:37.336Z,98757.52
2019-01-13T20:27:08.180Z,98768.03
2019-01-13T20:29:38.564Z,98784.98
2019-01-13T20:32:08.935Z,98788.53
2019-01-13T20:34:39.314Z,98796.23
2019-01-13T20:37:09.685Z,98798.23
2019-01-13T20:39:40.369Z,98803.75
2019-01-13T20:42:10.752Z,98816.73
2019-01-13T20:44:41.141Z,98826.23
2019-01-13T20:47:11.602Z,98805.33
2019-01-13T20:49:42.324Z,98825.57
2019-01-13T20:52:13.040Z,98848.74
2019-01-13T20:54:43.412Z,98815.06
2019-01-13T20:57:13.810Z,98829.97
2019-01-13T20:59:44.175Z,98828.05
2019-01-13T21:02:14.555Z,98836.38
2019-01-13T21:04:45.501Z,98849.18
2019-01-13T21:07:16.085Z,98864.22
2019-01-13T21:09:46.451Z,98865.87
2019-01-13T21:12:16.835Z,98863.28
2019-01-13T21:14:47.326Z,98870.37
2019-01-13T21:17:18.066Z,98874.07
2019-01-13T21:19:49.016Z,98860.73
2019-01-13T21:22:19.470Z,98862.81
2019-01-13T21:24:49.869Z,98869.44
2019-01-13T21:27:20.218Z,98866.63
2019-01-13T21:29:50.599Z,98865.67
2019-01-13T21:32:20.979Z,98869.05
2019-01-13T21:34:51.663Z,98868.66
2019-01-13T21:37:22.809Z,98870.58
2019-01-13T21:39:53.174Z,98857.48
2019-01-13T21:42:23.575Z,98881.00
2019-01-13T21:44:53.951Z,98870.32
2019-01-13T21:47:24.627Z,98883.22
2019-01-13T21:49:55.015Z,98892.25
2019-01-13T21:52:25.385Z,98870.70
2019-01-13T21:54:55.764Z,98882.91
2019-01-13T21:57:26.138Z,98897.09
2019-01-13T21:59:56.521Z,98902.46
2019-01-13T22:02:27.193Z,98938.67
2019-01-13T22:04:57.575Z,98921.31
2019-01-13T22:07:27.951Z,98923.07
2019-01-13T22:09:58.352Z,98924.37
2019-01-13T22:12:28.721Z,98919.53
2019-01-13T22:14:59.110Z,98923.43
2019-01-13T22:17:29.490Z,98924.66
2019-01-13T22:19:59.860Z,98932.70
2019-01-13T22:22:30.234Z,98960.91
2019-01-13T22:25:01.072Z,98954.41
2019-01-13T22:27:31.453Z,98963.64
2019-01-13T22:30:01.822Z,98943.34
2019-01-13T22:32:32.205Z,98948.88
2019-01-13T22:35:02.852Z,98953.68
2019-01-13T22:37:33.227Z,98971.23
2019-01-13T22:40:05.896Z,98974.09
2019-01-13T22:42:36.318Z,98973.39
2019-01-13T22:45:11.126Z,98970.39
2019-01-13T22:47:41.842Z,98981.00
2019-01-13T22:50:14.622Z,98982.14
2019-01-13T22:52:45.059Z,98999.66
2019-01-13T22:55:15.403Z,98995.84
2019-01-13T22:57:45.798Z,99023.99
2019-01-13T23:00:33.969Z,99021.03
2019-01-13T23:03:04.340Z,99047.48
2019-01-13T23:05:34.736Z,99012.08
2019-01-13T23:08:05.103Z,99036.70
2019-01-13T23:10:35.479Z,99031.83
2019-01-13T23:13:06.609Z,99074.71
2019-01-13T23:15:37.472Z,99045.41
2019-01-13T23:18:07.884Z,99056.75
2019-01-13T23:20:38.256Z,99039.44
2019-01-13T23:23:08.636Z,99060.85
2019-01-13T23:25:39.016Z,99074.63
2019-01-13T23:28:09.696Z,99058.09
2019-01-13T23:30:40.083Z,99072.36
2019-01-13T23:33:10.458Z,99072.64
2019-01-13T23:35:40.846Z,99085.89
2019-01-13T23:38:12.896Z,99088.56
2019-01-13T23:40:43.684Z,99075.08
2019-01-13T23:43:14.115Z,99093.53
2019-01-13T23:45:44.509Z,99104.66
2019-01-13T23:48:14.892Z,99101.78
2019-01-13T23:50:45.264Z,99117.50
2019-01-13T23:53:15.645Z,99118.42
2019-01-13T23:55:46.019Z,99137.59
2019-01-13T23:58:16.414Z,99145.12
